Time;durP1;ratioP1;P1;durP2;ratioP2;P2;SDS_P1;SDS_P2;PMS_P1;PMS_P2;Temp;Humidity;BMP_temperature;BMP_pressure;BME280_temperature;BME280_humidity;BME280_pressure;Samples;Min_cycle;Max_cycle;Signal;HPM_P1;HPM_P2
2022/09/05 08:01:53;;;;;;;7.13;3.83;;;;;;;21.64;52.68;101774.00;5301291;27;20933;-74
2022/09/05 08:04:28;;;;;;;7.55;3.75;;;;;;;21.70;52.68;101784.75;5301322;28;20180;-73
2022/09/05 08:07:06;;;;;;;8.50;3.60;;;;;;;21.74;52.82;101779.25;5299911;28;20043;-73
2022/09/05 08:09:58;;;;;;;4.80;3.40;;;;;;;21.83;52.44;101774.38;5299605;28;20032;-78
2022/09/05 08:12:35;;;;;;;7.82;3.10;;;;;;;22.00;52.17;101776.22;5300189;28;20031;-73
2022/09/05 08:15:15;;;;;;;6.20;3.20;;;;;;;22.07;51.02;101770.84;5300850;28;20020;-74
2022/09/05 08:18:13;;;;;;;6.32;3.00;;;;;;;22.22;51.28;101771.41;5300568;28;20042;-74
2022/09/05 08:20:52;;;;;;;6.47;3.47;;;;;;;22.32;50.92;101770.97;5282704;28;20628;-74
2022/09/05 08:23:41;;;;;;;5.55;3.13;;;;;;;22.49;50.17;101776.44;5306739;28;20459;-75
2022/09/05 08:26:46;;;;;;;6.40;3.10;;;;;;;22.53;50.26;101780.22;5302863;28;20020;-75
2022/09/05 08:29:38;;;;;;;8.43;2.85;;;;;;;22.65;50.21;101779.44;5301504;28;20032;-75
2022/09/05 08:32:09;;;;;;;5.53;3.15;;;;;;;22.82;50.00;101777.56;5303747;28;20099;-74
2022/09/05 08:34:50;;;;;;;5.27;3.13;;;;;;;22.91;50.08;101786.78;5303846;28;20063;-74
2022/09/05 08:37:25;;;;;;;6.43;3.20;;;;;;;23.02;49.75;101787.19;5294457;28;20274;-74
2022/09/05 08:40:04;;;;;;;8.80;3.25;;;;;;;23.08;49.38;101780.94;5304006;28;20029;-74
2022/09/05 08:42:47;;;;;;;6.70;3.03;;;;;;;23.16;48.63;101785.66;5304042;28;20027;-74
2022/09/05 08:45:37;;;;;;;5.15;3.15;;;;;;;23.28;48.72;101782.00;5305340;28;20024;-74
2022/09/05 08:48:24;;;;;;;7.38;2.80;;;;;;;23.37;48.21;101782.72;5303231;28;20020;-74
2022/09/05 08:51:14;;;;;;;6.38;3.60;;;;;;;23.56;48.14;101772.78;5304239;28;20024;-73
2022/09/05 08:54:17;;;;;;;7.63;3.20;;;;;;;23.64;47.87;101768.97;5302376;28;20098;-72
2022/09/05 08:57:06;;;;;;;3.63;2.42;;;;;;;23.83;47.28;101771.22;5285123;28;20036;-74
2022/09/05 08:59:38;;;;;;;3.92;2.53;;;;;;;23.97;47.26;101759.50;5301597;28;20055;-74
2022/09/05 09:02:21;;;;;;;5.90;3.00;;;;;;;24.01;45.59;101760.44;5307609;28;20025;-72
2022/09/05 09:05:45;;;;;;;3.03;2.70;;;;;;;24.18;45.82;101762.13;5303309;28;20294;-73
2022/09/05 09:08:40;;;;;;;4.72;2.70;;;;;;;24.39;44.83;101764.72;5307692;28;20032;-73
2022/09/05 09:11:49;;;;;;;6.63;2.30;;;;;;;24.40;44.27;101763.56;5304748;28;20033;-72
2022/09/05 09:14:30;;;;;;;7.05;2.80;;;;;;;24.49;44.53;101765.06;5237326;28;20049;-73
2022/09/05 09:17:22;;;;;;;5.28;2.65;;;;;;;24.50;43.84;101758.22;5292771;28;20036;-73
2022/09/05 09:20:20;;;;;;;4.88;2.47;;;;;;;24.59;44.58;101763.69;5291438;28;20032;-74
2022/09/05 09:23:05;;;;;;;3.85;2.45;;;;;;;24.81;44.59;101762.28;5290649;28;20035;-74
2022/09/05 09:26:15;;;;;;;5.32;2.20;;;;;;;24.85;44.58;101746.19;5285434;28;20024;-74
2022/09/05 09:29:02;;;;;;;3.35;2.30;;;;;;;25.07;42.71;101738.19;5285517;28;20415;-74
2022/09/05 09:31:49;;;;;;;5.35;2.28;;;;;;;25.12;41.94;101740.75;5285152;28;20020;-75
2022/09/05 09:34:30;;;;;;;3.72;2.13;;;;;;;25.15;42.13;101748.53;5285582;28;20024;-74
2022/09/05 09:37:54;;;;;;;3.80;2.47;;;;;;;25.28;42.68;101743.59;5285770;28;20059;-75
2022/09/05 09:40:42;;;;;;;3.05;2.20;;;;;;;25.32;41.58;101744.50;5267481;28;20068;-74
2022/09/05 09:43:26;;;;;;;4.15;2.70;;;;;;;25.39;41.76;101739.00;5285706;28;20033;-75
2022/09/05 09:46:36;;;;;;;7.38;2.70;;;;;;;25.58;41.58;101738.22;5285387;28;20169;-75
2022/09/05 09:49:28;;;;;;;4.47;2.00;;;;;;;25.51;40.95;101738.84;5285262;28;20115;-73
2022/09/05 09:52:21;;;;;;;2.90;2.28;;;;;;;25.64;40.72;101735.88;5286816;28;20028;-73
2022/09/05 09:55:28;;;;;;;4.60;2.50;;;;;;;25.78;40.75;101728.50;5270378;28;20036;-73
2022/09/05 09:58:14;;;;;;;2.75;2.17;;;;;;;25.76;40.18;101735.75;5263659;28;20123;-74
2022/09/05 10:00:56;;;;;;;5.38;1.92;;;;;;;26.05;39.93;101736.38;5283961;28;20110;-73
2022/09/05 10:03:38;;;;;;;3.13;2.20;;;;;;;26.10;39.72;101730.41;5287150;28;20089;-73
2022/09/05 10:06:30;;;;;;;3.25;1.95;;;;;;;26.13;38.41;101724.81;5286473;28;20029;-72
2022/09/05 10:09:21;;;;;;;5.93;2.50;;;;;;;26.18;38.52;101723.66;5285058;28;20028;-72
2022/09/05 10:12:22;;;;;;;4.13;2.40;;;;;;;26.25;37.95;101720.97;5265053;28;20021;-73
2022/09/05 10:15:12;;;;;;;3.20;2.17;;;;;;;26.29;37.50;101716.19;5262925;28;20083;-72
2022/09/05 10:18:02;;;;;;;2.75;2.08;;;;;;;26.48;37.48;101706.75;5282683;28;20059;-74
2022/09/05 10:21:06;;;;;;;5.50;3.30;;;;;;;26.45;37.43;101707.53;5283791;28;20040;-73
2022/09/05 10:24:08;;;;;;;3.17;2.25;;;;;;;26.56;37.71;101713.44;5278951;28;20031;-73
2022/09/05 10:27:04;;;;;;;4.88;2.08;;;;;;;26.61;37.27;101705.44;5284779;28;20021;-72
2022/09/05 10:29:38;;;;;;;2.92;1.75;;;;;;;26.73;36.96;101707.25;5283350;28;20059;-71
2022/09/05 10:32:16;;;;;;;7.10;2.40;;;;;;;26.77;35.79;101708.16;5285467;28;20078;-73
2022/09/05 10:35:08;;;;;;;3.45;2.00;;;;;;;26.80;36.31;101704.53;5283970;28;20097;-73
2022/09/05 10:37:48;;;;;;;2.38;1.80;;;;;;;26.82;36.61;101707.00;5284540;28;20107;-77
2022/09/05 10:40:23;;;;;;;2.28;1.58;;;;;;;26.90;35.20;101703.06;5284194;28;20020;-78
2022/09/05 10:43:21;;;;;;;2.97;1.65;;;;;;;26.92;35.14;101696.97;5283446;28;20048;-77
2022/09/05 10:46:10;;;;;;;2.65;1.65;;;;;;;26.93;35.35;101701.50;5263521;28;20387;-73
2022/09/05 10:48:53;;;;;;;2.47;1.50;;;;;;;27.08;34.87;101704.16;5262979;28;20782;-73
2022/09/05 10:51:33;;;;;;;3.00;2.53;;;;;;;27.20;35.07;101703.19;5282066;28;20024;-72
2022/09/05 10:54:34;;;;;;;2.00;1.55;;;;;;;27.13;34.91;101700.19;5283517;28;20073;-73
2022/09/05 10:57:31;;;;;;;4.32;1.85;;;;;;;27.02;34.68;101694.31;5282975;28;20032;-74
2022/09/05 11:00:28;;;;;;;4.45;1.70;;;;;;;27.13;34.63;101691.66;5285054;28;20127;-73
2022/09/05 11:03:03;;;;;;;4.20;1.88;;;;;;;27.23;34.54;101682.47;5283304;28;20028;-74
2022/09/05 11:05:36;;;;;;;3.35;2.10;;;;;;;27.20;34.83;101683.25;5283673;28;20020;-73
2022/09/05 11:08:25;;;;;;;5.25;2.33;;;;;;;27.33;34.62;101681.00;5284461;28;20341;-74
2022/09/05 11:11:23;;;;;;;3.03;1.85;;;;;;;27.37;34.42;101678.19;5282839;28;20032;-74
2022/09/05 11:14:01;;;;;;;5.28;1.52;;;;;;;27.44;34.42;101672.59;5283182;28;20020;-73
2022/09/05 11:16:39;;;;;;;3.35;1.80;;;;;;;27.53;33.99;101673.94;5281878;28;20364;-73
2022/09/05 11:19:18;;;;;;;5.40;2.67;;;;;;;27.49;34.10;101673.06;5279285;28;20389;-74
2022/09/05 11:22:02;;;;;;;3.72;2.10;;;;;;;27.71;34.01;101668.47;5282902;28;20033;-74
2022/09/05 11:24:45;;;;;;;8.15;2.13;;;;;;;27.76;34.06;101670.13;5281973;28;20031;-73
2022/09/05 11:27:53;;;;;;;2.85;1.85;;;;;;;27.80;34.52;101664.50;5282815;28;20499;-74
2022/09/05 11:30:29;;;;;;;2.92;1.88;;;;;;;27.95;32.93;101660.63;5238700;28;20500;-74
2022/09/05 11:33:27;;;;;;;2.78;1.73;;;;;;;27.98;33.74;101664.75;5277051;28;20036;-74
2022/09/05 11:36:15;;;;;;;3.13;2.38;;;;;;;28.01;33.42;101672.50;5282766;28;20078;-74
2022/09/05 11:38:55;;;;;;;4.60;2.00;;;;;;;28.13;33.40;101661.66;5281917;28;20447;-74
2022/09/05 11:41:49;;;;;;;1.95;1.60;;;;;;;28.11;34.04;101664.06;5272681;28;20163;-74
2022/09/05 11:44:23;;;;;;;3.78;2.45;;;;;;;28.14;33.22;101657.56;5283059;28;20028;-74
2022/09/05 11:47:22;;;;;;;3.92;2.30;;;;;;;28.28;33.69;101656.09;5281799;28;20036;-75
2022/09/05 11:50:05;;;;;;;5.20;1.98;;;;;;;28.21;33.67;101656.84;5282844;28;20037;-74
2022/09/05 11:52:57;;;;;;;1.80;1.50;;;;;;;28.35;33.81;101656.16;5279999;28;20070;-74
2022/09/05 11:55:59;;;;;;;3.85;1.75;;;;;;;28.47;33.09;101660.78;5282714;28;20056;-74
2022/09/05 11:58:41;;;;;;;2.88;2.10;;;;;;;28.50;32.80;101657.13;5281804;28;20025;-74
2022/09/05 12:01:42;;;;;;;3.15;2.08;;;;;;;28.54;32.90;101649.44;5279274;28;20041;-75
2022/09/05 12:04:32;;;;;;;2.90;1.52;;;;;;;28.67;32.30;101652.81;5280680;28;20184;-74
2022/09/05 12:07:41;;;;;;;4.55;1.80;;;;;;;28.73;32.70;101648.38;5282087;28;20024;-71
2022/09/05 12:10:30;;;;;;;5.43;1.88;;;;;;;28.79;33.11;101646.81;5280214;28;20499;-74
2022/09/05 12:13:36;;;;;;;4.15;1.98;;;;;;;28.88;32.23;101632.97;5284828;28;20054;-74
2022/09/05 12:16:55;;;;;;;1.80;1.67;;;;;;;28.91;32.29;101632.19;5221673;28;20044;-77
2022/09/05 12:19:50;;;;;;;3.60;1.95;;;;;;;29.07;32.04;101645.38;5248154;28;20041;-74
2022/09/05 12:22:33;;;;;;;3.17;1.90;;;;;;;29.18;32.00;101634.84;5280328;28;20028;-74
2022/09/05 12:25:23;;;;;;;3.17;1.60;;;;;;;29.20;32.29;101636.09;5268002;28;20271;-74
2022/09/05 12:27:59;;;;;;;4.03;1.88;;;;;;;29.36;31.35;101623.50;5261496;28;20044;-74
2022/09/05 12:30:31;;;;;;;3.55;1.75;;;;;;;29.26;31.47;101625.91;5281584;28;20028;-74
2022/09/05 12:33:24;;;;;;;3.28;1.65;;;;;;;29.32;31.34;101631.25;5282099;28;20415;-81
2022/09/05 12:36:16;;;;;;;2.97;1.85;;;;;;;29.39;31.77;101625.56;5282541;28;20083;-80
2022/09/05 12:38:59;;;;;;;4.90;2.17;;;;;;;29.53;31.21;101633.38;5283020;28;20032;-81
2022/09/05 12:41:47;;;;;;;4.32;2.00;;;;;;;29.56;31.48;101621.16;5280277;28;20121;-81
2022/09/05 12:44:29;;;;;;;2.60;1.60;;;;;;;29.62;31.25;101616.69;5283253;28;20024;-73
2022/09/05 12:47:07;;;;;;;2.13;1.70;;;;;;;29.68;30.73;101620.81;5283177;28;20052;-74
2022/09/05 12:49:44;;;;;;;3.03;2.10;;;;;;;29.77;30.46;101621.25;5284306;28;20032;-74
2022/09/05 12:52:39;;;;;;;4.28;1.90;;;;;;;29.94;30.43;101613.97;5284717;28;20028;-75
2022/09/05 12:55:16;;;;;;;3.47;2.15;;;;;;;30.02;30.26;101615.59;5282639;28;20032;-74
2022/09/05 12:57:54;;;;;;;2.63;1.70;;;;;;;30.00;30.19;101617.22;5285633;28;20490;-74
2022/09/05 13:00:26;;;;;;;5.50;1.90;;;;;;;30.18;30.52;101612.34;5283142;28;20510;-74
2022/09/05 13:03:08;;;;;;;5.47;2.10;;;;;;;30.10;30.33;101610.72;5283246;28;20036;-73
2022/09/05 13:05:50;;;;;;;5.55;2.00;;;;;;;30.22;29.74;101606.63;5285205;28;20589;-74
2022/09/05 13:08:36;;;;;;;5.10;2.15;;;;;;;30.28;30.08;101608.72;5285452;28;20356;-75
2022/09/05 13:11:10;;;;;;;4.82;1.83;;;;;;;30.39;29.81;101605.03;5284307;28;20056;-74
2022/09/05 13:13:51;;;;;;;2.55;1.90;;;;;;;30.55;29.59;101608.28;5285895;28;20089;-73
2022/09/05 13:16:25;;;;;;;2.75;1.73;;;;;;;30.42;30.10;101601.34;5284798;28;20024;-73
2022/09/05 13:19:06;;;;;;;;;;;;;;;30.67;29.50;101607.06;5284132;28;20020;-74
2022/09/05 13:21:44;;;;;;;2.35;1.60;;;;;;;30.52;29.99;101601.34;5285515;28;20363;-74
2022/09/05 13:24:26;;;;;;;3.08;1.92;;;;;;;30.48;29.71;101591.97;5284138;28;20028;-74
2022/09/05 13:27:16;;;;;;;4.60;2.33;;;;;;;30.69;29.73;101590.31;5285573;28;20044;-74
2022/09/05 13:29:54;;;;;;;2.15;1.90;;;;;;;30.70;28.92;101591.94;5284118;28;20033;-73
2022/09/05 13:32:33;;;;;;;6.50;2.33;;;;;;;30.79;28.98;101589.47;5283804;28;20070;-73
2022/09/05 13:35:18;;;;;;;2.03;1.83;;;;;;;30.74;28.82;101582.13;5284537;28;20035;-72
2022/09/05 13:38:05;;;;;;;4.57;2.10;;;;;;;31.00;29.38;101587.81;5283784;28;20150;-74
2022/09/05 13:40:44;;;;;;;2.75;1.83;;;;;;;30.92;29.50;101581.28;5275014;28;20032;-74
2022/09/05 13:43:29;;;;;;;6.05;2.10;;;;;;;31.00;29.04;101577.19;5285152;28;20431;-73
2022/09/05 13:46:09;;;;;;;3.13;1.88;;;;;;;30.87;29.22;101576.00;5280397;28;20021;-74
2022/09/05 13:48:49;;;;;;;8.63;3.25;;;;;;;31.10;29.23;101576.34;5284834;28;20037;-74
2022/09/05 13:51:39;;;;;;;5.15;3.35;;;;;;;31.15;29.11;101569.38;5284452;28;20510;-74
2022/09/05 13:54:35;;;;;;;4.80;2.40;;;;;;;31.21;28.88;101559.09;5283105;28;20032;-74
2022/09/05 13:57:25;;;;;;;;;;;;;;;31.20;29.66;101563.19;5285590;28;20036;-73
2022/09/05 14:00:19;;;;;;;2.75;1.95;;;;;;;30.82;29.95;101564.97;5282929;28;20064;-74
2022/09/05 14:03:27;;;;;;;3.47;1.95;;;;;;;30.80;29.46;101553.88;5260633;28;20052;-78
2022/09/05 14:06:36;;;;;;;4.05;1.77;;;;;;;30.58;28.56;101549.41;5283399;28;20044;-78
2022/09/05 14:09:23;;;;;;;3.50;1.85;;;;;;;30.58;29.56;101546.56;5240267;28;20191;-76
2022/09/05 14:12:14;;;;;;;5.03;2.75;;;;;;;30.66;29.28;101551.88;5286575;28;20112;-76
2022/09/05 14:14:51;;;;;;;2.40;2.20;;;;;;;30.50;29.95;101554.34;5283568;28;20051;-75
2022/09/05 14:17:50;;;;;;;4.22;2.15;;;;;;;30.73;29.42;101557.59;5283957;28;20080;-78
2022/09/05 14:23:27;;;;;;;3.30;1.73;;;;;;;30.43;28.87;101543.72;5291087;28;20132;-76
2022/09/05 14:26:02;;;;;;;2.65;1.65;;;;;;;30.42;28.76;101542.06;5283792;28;20086;-74
2022/09/05 14:28:50;;;;;;;3.28;2.05;;;;;;;30.68;29.09;101535.13;5281751;28;20024;-75
2022/09/05 14:31:33;;;;;;;2.88;2.08;;;;;;;30.66;29.19;101528.97;5262252;28;20488;-76
2022/09/05 14:34:52;;;;;;;2.60;2.10;;;;;;;30.82;29.23;101528.56;5271657;28;20013;-74
2022/09/05 14:37:42;;;;;;;2.35;1.98;;;;;;;30.81;28.72;101523.19;5228240;28;20036;-76
2022/09/05 14:40:19;;;;;;;3.17;1.73;;;;;;;30.86;28.96;101519.94;5282762;28;20032;-76
2022/09/05 14:43:14;;;;;;;4.93;2.10;;;;;;;30.82;28.88;101522.00;5262498;28;20037;-75
2022/09/05 14:45:57;;;;;;;4.03;1.77;;;;;;;30.76;29.11;101510.97;5278510;28;20028;-75
2022/09/05 14:49:05;;;;;;;2.42;1.60;;;;;;;30.87;29.78;101508.09;5262269;28;20322;-76
2022/09/05 14:51:36;;;;;;;2.70;1.98;;;;;;;30.61;29.88;101509.34;5274949;28;20533;-76
2022/09/05 14:54:20;;;;;;;3.13;1.90;;;;;;;30.53;29.44;101502.03;5283522;28;20036;-75
2022/09/05 14:56:58;;;;;;;5.07;1.97;;;;;;;30.38;29.59;101500.41;5283367;28;20020;-76
2022/09/05 14:59:36;;;;;;;8.85;3.30;;;;;;;30.33;30.08;101504.50;5283748;28;20047;-76
2022/09/05 15:02:13;;;;;;;9.27;5.70;;;;;;;30.26;30.20;101510.22;5290824;28;20419;-76
2022/09/05 15:04:48;;;;;;;4.72;2.72;;;;;;;30.18;30.38;101503.66;5283628;28;20447;-76
2022/09/05 15:07:19;;;;;;;3.63;2.33;;;;;;;30.10;30.04;101490.59;5282967;28;20025;-76
2022/09/05 15:10:20;;;;;;;3.85;2.13;;;;;;;30.16;30.65;101499.56;5282447;28;20027;-75
2022/09/05 15:12:55;;;;;;;3.67;2.30;;;;;;;30.05;30.67;101494.69;5279333;28;20101;-78
2022/09/05 15:15:38;;;;;;;5.35;2.90;;;;;;;30.05;30.25;101499.59;5283290;28;20030;-75
2022/09/05 15:18:23;;;;;;;4.60;2.65;;;;;;;30.12;30.49;101494.69;5281815;28;20135;-76
2022/09/05 15:21:15;;;;;;;2.90;1.88;;;;;;;30.08;30.47;101493.03;5283321;28;20093;-72
2022/09/05 15:24:19;;;;;;;6.70;2.70;;;;;;;29.95;31.18;101484.06;5282598;28;20113;-73
2022/09/05 15:26:58;;;;;;;5.80;2.45;;;;;;;29.92;31.28;101489.78;5283081;28;20162;-75
2022/09/05 15:29:35;;;;;;;3.28;2.92;;;;;;;29.85;31.07;101485.69;5281239;28;20025;-77
2022/09/05 15:32:17;;;;;;;4.72;2.30;;;;;;;29.82;30.76;101485.69;5281993;28;20028;-76
2022/09/05 15:34:50;;;;;;;4.32;2.33;;;;;;;29.78;30.99;101490.56;5280596;28;20036;-73
2022/09/05 15:37:40;;;;;;;6.05;2.40;;;;;;;29.71;31.25;101490.56;5282088;28;20047;-73
2022/09/05 15:40:18;;;;;;;3.78;2.40;;;;;;;29.68;31.26;101492.19;5282282;28;20059;-76
2022/09/05 15:42:59;;;;;;;2.70;2.30;;;;;;;29.69;30.96;101491.78;5283106;28;20055;-73
2022/09/05 15:45:34;;;;;;;3.97;2.22;;;;;;;29.61;31.16;101492.16;5281632;28;20035;-74
2022/09/05 15:48:21;;;;;;;6.47;2.22;;;;;;;29.56;31.32;101489.72;5282250;28;20029;-76
2022/09/05 15:50:55;;;;;;;8.65;2.42;;;;;;;29.52;31.42;101494.59;5267778;28;20044;-75
2022/09/05 15:53:36;;;;;;;5.20;4.50;;;;;;;29.48;31.46;101489.69;5280212;28;20016;-76
2022/09/05 15:56:08;;;;;;;7.90;3.53;;;;;;;29.53;31.78;101484.78;5282818;28;20111;-75
2022/09/05 15:59:00;;;;;;;4.13;2.40;;;;;;;29.55;31.89;101482.34;5281759;28;20096;-74
2022/09/05 16:01:34;;;;;;;5.15;2.20;;;;;;;29.61;31.53;101483.59;5282531;28;20049;-74
2022/09/05 16:04:11;;;;;;;4.13;2.80;;;;;;;29.66;30.82;101480.38;5282405;28;20478;-74
2022/09/05 16:06:50;;;;;;;3.08;2.03;;;;;;;29.59;31.10;101478.28;5282543;28;20282;-74
2022/09/05 16:09:37;;;;;;;5.30;2.53;;;;;;;29.51;31.55;101475.81;5282909;28;20097;-74
2022/09/05 16:12:12;;;;;;;3.55;1.80;;;;;;;29.46;31.35;101469.28;5282263;28;20066;-74
2022/09/05 16:14:49;;;;;;;2.53;1.85;;;;;;;29.48;31.08;101472.56;5283205;28;20020;-73
2022/09/05 16:17:37;;;;;;;6.05;2.40;;;;;;;29.46;31.41;101475.00;5283120;28;20021;-74
2022/09/05 16:20:28;;;;;;;4.38;2.30;;;;;;;29.50;32.03;101469.28;5282153;28;20455;-74
2022/09/05 16:23:02;;;;;;;4.15;1.88;;;;;;;29.37;31.55;101468.84;5285704;28;20024;-73
2022/09/05 16:25:41;;;;;;;4.95;2.42;;;;;;;29.39;31.31;101462.72;5282437;28;20028;-77
2022/09/05 16:28:21;;;;;;;5.20;1.85;;;;;;;29.25;31.23;101452.09;5267075;28;20043;-77
2022/09/05 16:31:01;;;;;;;3.53;1.80;;;;;;;29.23;31.35;101454.53;5267044;28;20025;-78
2022/09/05 16:33:32;;;;;;;4.82;2.10;;;;;;;29.11;31.57;101452.03;5266053;28;20024;-76
2022/09/05 16:36:11;;;;;;;5.75;2.10;;;;;;;29.06;31.11;101455.28;5269489;28;20021;-74
2022/09/05 16:38:54;;;;;;;3.50;1.90;;;;;;;29.02;31.17;101455.25;5284826;28;20070;-74
2022/09/05 16:41:46;;;;;;;3.42;2.22;;;;;;;28.98;31.19;101454.41;5267983;28;20080;-74
2022/09/05 16:44:43;;;;;;;2.75;1.58;;;;;;;28.89;31.46;101445.41;5265580;28;20037;-74
2022/09/05 16:47:47;;;;;;;3.55;1.70;;;;;;;28.88;31.44;101449.47;5264873;28;20025;-74
2022/09/05 16:50:41;;;;;;;2.85;1.95;;;;;;;28.81;31.61;101450.25;5249327;28;20040;-74
2022/09/05 16:53:25;;;;;;;4.13;1.83;;;;;;;28.79;31.45;101447.00;5270896;28;20052;-74
2022/09/05 16:56:03;;;;;;;3.22;2.30;;;;;;;28.73;31.90;101449.41;5285496;28;20028;-75
2022/09/05 16:58:41;;;;;;;4.85;3.15;;;;;;;28.72;31.88;101435.56;5285952;28;20027;-74
2022/09/05 17:01:57;;;;;;;4.53;2.58;;;;;;;28.62;32.02;101434.28;5284907;28;20368;-75
2022/09/05 17:04:45;;;;;;;6.95;2.70;;;;;;;28.56;31.98;101436.72;5286977;28;20475;-79
2022/09/05 17:07:57;;;;;;;8.15;2.25;;;;;;;28.55;32.30;101432.19;5285600;28;20031;-79
2022/09/05 17:10:46;;;;;;;2.67;1.90;;;;;;;28.49;32.14;101428.09;5275946;28;20032;-79
2022/09/05 17:13:51;;;;;;;3.38;2.00;;;;;;;28.46;32.05;101430.94;5285870;28;20032;-75
2022/09/05 17:16:35;;;;;;;4.32;2.08;;;;;;;28.41;32.07;101437.81;5282061;28;20068;-75
2022/09/05 17:19:18;;;;;;;3.15;1.70;;;;;;;28.33;32.41;101439.00;5285669;28;20036;-74
2022/09/05 17:22:10;;;;;;;3.60;2.00;;;;;;;28.31;32.33;101441.41;5285473;28;20059;-75
2022/09/05 17:24:47;;;;;;;3.08;2.08;;;;;;;28.22;32.32;101435.22;5284731;28;20075;-75
2022/09/05 17:27:22;;;;;;;4.93;2.42;;;;;;;28.15;33.08;101438.88;5283385;28;20043;-74
2022/09/05 17:30:00;;;;;;;4.50;2.28;;;;;;;28.15;32.37;101436.03;5275903;28;20135;-74
2022/09/05 17:32:33;;;;;;;4.30;2.60;;;;;;;28.13;32.58;101442.09;5278644;28;20063;-74
